Fort Wayne International Airport
KFWA : rendu visible

Aérodrome :











RETROUVEZ-NOUS SUR...

 
LOGIN :

S'inscrire | Disclaimer

   EN    FR    IT 

 









Légende :    VFR   VFR Marginal   IFR   IFR Intensif   IFR Très Intensif
Visi : 
Plafond : 
>= 8 km
>= 3000ft
5 à 8 km
1000 à 3000 ft
1500m à 5 km
500 à 1000 ft
800 à 1500m
200 à 500 ft
< 800m
< 200 ft
Symboles :   Orages  Brouillard  Fortes neiges  Fortes précipitations  Vent > 20 kt






- Altitude de l'aérodrome : 814 ft
- Code IATA : FWA


KFWA - Fort Wayne International

DERNIER METAR :
  • 010554Z 35008KT 7SM -DZ OVC013 04/03 A2996 RMK AO2 DZB51 SLP151 P0000 60003 T00440033 10050 20044 55000

METARs EXPIRÉS :
  • 010454Z 34005KT 10SM OVC011 04/03 A2996 RMK AO2 RAE11 SLP150 P0000 T00440033 400610000
  • 010354Z 35007KT 10SM -RA BKN012 OVC027 04/03 A2996 RMK AO2 RAB47 SLP149 P0000 T00440033

TAF KFWA
Valide du 01 à 06h jusqu'au 02 à 06h UTC


010521Z 0106/0206 35007KT P6SM -SHRA SCT008 BKN010 OVC025
TEMPO 0106/0109 BKN008
FM010900 35005KT P6SM OVC010
FM011400 35005KT P6SM OVC015
FM011800 35006KT P6SM BKN020
FM012300 VRB03KT P6SM SCT025 BKN040



MET'MAP, la Météo Aéronautique d'un coup d'oeil ! - Copyright ORBIFLY Décembre 2007 - Disclaimer

ORBIFLY MET'MAP TEAM :

Programmation & Développement : Alexandra Zaïnal
Sur une idée originale de : Baudouin d'Aumeries
Assistance à la programmation : Marc-Olivier Méhu
Soutien technique & logistique : Manuel Goepfert

Contact : metmap@orbifly.com




SOURCES & CREDITS :

   NOAA       Earth
Advisory